sensor_id;sensor_type;location;lat;lon;timestamp;pressure;altitude;pressure_sealevel;temperature;humidity
68301;BME280;55146;47.468;18.806;2022-12-29T00:01:58;100697.13;;;1.86;85.23
68301;BME280;55146;47.468;18.806;2022-12-29T00:04:24;100688.78;;;1.81;85.41
68301;BME280;55146;47.468;18.806;2022-12-29T00:06:49;100694.03;;;1.89;85.42
68301;BME280;55146;47.468;18.806;2022-12-29T00:09:16;100691.69;;;1.80;85.36
68301;BME280;55146;47.468;18.806;2022-12-29T00:11:42;100686.09;;;1.88;85.31
68301;BME280;55146;47.468;18.806;2022-12-29T00:14:11;100685.66;;;1.84;84.75
68301;BME280;55146;47.468;18.806;2022-12-29T00:16:57;100695.03;;;1.82;84.61
68301;BME280;55146;47.468;18.806;2022-12-29T00:19:23;100687.00;;;1.60;85.69
68301;BME280;55146;47.468;18.806;2022-12-29T00:22:09;100690.31;;;1.56;85.65
68301;BME280;55146;47.468;18.806;2022-12-29T00:24:53;100690.91;;;1.45;86.06
68301;BME280;55146;47.468;18.806;2022-12-29T00:27:37;100684.47;;;1.52;85.70
68301;BME280;55146;47.468;18.806;2022-12-29T00:30:38;100685.28;;;1.46;85.83
68301;BME280;55146;47.468;18.806;2022-12-29T00:33:26;100684.78;;;1.36;86.33
68301;BME280;55146;47.468;18.806;2022-12-29T00:36:32;100679.78;;;1.33;86.59
68301;BME280;55146;47.468;18.806;2022-12-29T00:39:03;100677.72;;;1.35;87.01
68301;BME280;55146;47.468;18.806;2022-12-29T00:41:48;100680.16;;;1.30;87.33
68301;BME280;55146;47.468;18.806;2022-12-29T00:44:32;100675.81;;;1.29;87.08
68301;BME280;55146;47.468;18.806;2022-12-29T00:46:58;100673.75;;;1.38;86.60
68301;BME280;55146;47.468;18.806;2022-12-29T00:49:27;100669.28;;;1.17;87.51
68301;BME280;55146;47.468;18.806;2022-12-29T00:52:06;100681.34;;;1.14;87.96
68301;BME280;55146;47.468;18.806;2022-12-29T00:54:34;100678.22;;;1.11;88.06
68301;BME280;55146;47.468;18.806;2022-12-29T00:57:01;100679.50;;;1.21;87.61
68301;BME280;55146;47.468;18.806;2022-12-29T00:59:27;100676.38;;;1.25;87.24
68301;BME280;55146;47.468;18.806;2022-12-29T01:01:53;100677.00;;;1.20;87.52
68301;BME280;55146;47.468;18.806;2022-12-29T01:04:20;100678.56;;;1.36;86.72
68301;BME280;55146;47.468;18.806;2022-12-29T01:06:46;100676.69;;;1.43;86.39
68301;BME280;55146;47.468;18.806;2022-12-29T01:09:12;100678.34;;;1.37;86.47
68301;BME280;55146;47.468;18.806;2022-12-29T01:11:56;100677.00;;;1.20;86.78
68301;BME280;55146;47.468;18.806;2022-12-29T01:14:22;100678.81;;;1.13;87.55
68301;BME280;55146;47.468;18.806;2022-12-29T01:16:48;100685.16;;;1.27;87.29
68301;BME280;55146;47.468;18.806;2022-12-29T01:19:14;100677.22;;;1.25;87.13
68301;BME280;55146;47.468;18.806;2022-12-29T01:21:40;100676.81;;;1.21;87.58
68301;BME280;55146;47.468;18.806;2022-12-29T01:24:05;100678.22;;;1.17;87.50
68301;BME280;55146;47.468;18.806;2022-12-29T01:26:31;100680.78;;;1.26;87.29
68301;BME280;55146;47.468;18.806;2022-12-29T01:28:56;100689.69;;;1.19;87.84
68301;BME280;55146;47.468;18.806;2022-12-29T01:31:22;100688.25;;;1.17;87.77
68301;BME280;55146;47.468;18.806;2022-12-29T01:33:47;100689.31;;;1.23;87.39
68301;BME280;55146;47.468;18.806;2022-12-29T01:36:14;100686.94;;;1.13;87.64
68301;BME280;55146;47.468;18.806;2022-12-29T01:38:41;100690.66;;;1.05;88.13
68301;BME280;55146;47.468;18.806;2022-12-29T01:41:08;100684.56;;;0.97;88.59
68301;BME280;55146;47.468;18.806;2022-12-29T01:44:00;100685.91;;;1.14;87.76
68301;BME280;55146;47.468;18.806;2022-12-29T01:51:38;100673.97;;;1.02;88.09
68301;BME280;55146;47.468;18.806;2022-12-29T01:54:09;100670.81;;;0.98;87.72
68301;BME280;55146;47.468;18.806;2022-12-29T01:56:37;100670.78;;;0.92;88.43
68301;BME280;55146;47.468;18.806;2022-12-29T01:59:11;100677.31;;;1.04;87.58
68301;BME280;55146;47.468;18.806;2022-12-29T02:01:38;100674.16;;;1.00;87.59
68301;BME280;55146;47.468;18.806;2022-12-29T02:04:04;100654.63;;;1.11;87.06
68301;BME280;55146;47.468;18.806;2022-12-29T02:06:33;100655.16;;;0.94;88.31
68301;BME280;55146;47.468;18.806;2022-12-29T02:09:01;100655.50;;;0.84;88.82
68301;BME280;55146;47.468;18.806;2022-12-29T02:11:28;100650.75;;;0.86;88.87
68301;BME280;55146;47.468;18.806;2022-12-29T02:13:55;100650.87;;;0.78;89.17
68301;BME280;55146;47.468;18.806;2022-12-29T02:19:16;100645.66;;;0.76;89.58
68301;BME280;55146;47.468;18.806;2022-12-29T02:32:25;100625.03;;;0.75;90.18
68301;BME280;55146;47.468;18.806;2022-12-29T02:38:03;100611.06;;;0.72;90.53
68301;BME280;55146;47.468;18.806;2022-12-29T02:41:08;100605.41;;;0.67;90.50
68301;BME280;55146;47.468;18.806;2022-12-29T02:46:01;100607.66;;;0.63;90.78
68301;BME280;55146;47.468;18.806;2022-12-29T02:48:43;100605.41;;;0.67;90.46
68301;BME280;55146;47.468;18.806;2022-12-29T02:51:57;100608.75;;;0.69;90.49
68301;BME280;55146;47.468;18.806;2022-12-29T02:54:23;100598.97;;;0.68;90.12
68301;BME280;55146;47.468;18.806;2022-12-29T02:59:51;100597.53;;;0.72;90.12
68301;BME280;55146;47.468;18.806;2022-12-29T03:10:51;100606.13;;;0.82;89.49
68301;BME280;55146;47.468;18.806;2022-12-29T03:13:43;100610.78;;;0.95;88.98
68301;BME280;55146;47.468;18.806;2022-12-29T03:19:11;100597.56;;;0.78;89.23
68301;BME280;55146;47.468;18.806;2022-12-29T03:21:43;100585.31;;;0.82;89.08
68301;BME280;55146;47.468;18.806;2022-12-29T03:24:30;100586.50;;;0.73;89.76
68301;BME280;55146;47.468;18.806;2022-12-29T03:26:58;100593.28;;;0.91;89.11
68301;BME280;55146;47.468;18.806;2022-12-29T03:29:25;100590.13;;;0.87;89.57
68301;BME280;55146;47.468;18.806;2022-12-29T03:31:52;100591.62;;;0.96;89.23
68301;BME280;55146;47.468;18.806;2022-12-29T03:34:20;100590.75;;;0.89;89.22
68301;BME280;55146;47.468;18.806;2022-12-29T03:36:53;100594.94;;;0.92;89.26
68301;BME280;55146;47.468;18.806;2022-12-29T03:39:22;100581.84;;;0.95;88.99
68301;BME280;55146;47.468;18.806;2022-12-29T03:41:52;100578.09;;;0.96;89.04
68301;BME280;55146;47.468;18.806;2022-12-29T03:44:20;100580.75;;;0.90;89.05
68301;BME280;55146;47.468;18.806;2022-12-29T03:46:46;100580.13;;;0.88;89.29
68301;BME280;55146;47.468;18.806;2022-12-29T03:49:11;100580.13;;;0.88;89.52
68301;BME280;55146;47.468;18.806;2022-12-29T03:51:37;100576.34;;;0.82;89.55
68301;BME280;55146;47.468;18.806;2022-12-29T03:54:02;100574.94;;;0.93;89.14
68301;BME280;55146;47.468;18.806;2022-12-29T03:56:27;100575.06;;;0.78;89.38
68301;BME280;55146;47.468;18.806;2022-12-29T03:58:53;100570.00;;;0.68;89.95
68301;BME280;55146;47.468;18.806;2022-12-29T04:01:18;100585.25;;;0.76;89.76
68301;BME280;55146;47.468;18.806;2022-12-29T04:03:43;100585.69;;;0.73;89.70
68301;BME280;55146;47.468;18.806;2022-12-29T04:06:09;100587.31;;;0.67;89.97
68301;BME280;55146;47.468;18.806;2022-12-29T04:08:34;100582.72;;;0.68;90.14
68301;BME280;55146;47.468;18.806;2022-12-29T04:10:59;100587.88;;;0.63;90.14
68301;BME280;55146;47.468;18.806;2022-12-29T04:13:25;100582.47;;;0.63;90.34
68301;BME280;55146;47.468;18.806;2022-12-29T04:15:50;100581.84;;;0.61;90.45
68301;BME280;55146;47.468;18.806;2022-12-29T04:18:15;100585.63;;;0.66;90.16
68301;BME280;55146;47.468;18.806;2022-12-29T04:20:41;100583.53;;;0.68;89.85
68301;BME280;55146;47.468;18.806;2022-12-29T04:23:25;100579.37;;;0.66;90.01
68301;BME280;55146;47.468;18.806;2022-12-29T04:25:50;100576.84;;;0.64;89.89
68301;BME280;55146;47.468;18.806;2022-12-29T04:28:16;100573.34;;;0.70;89.60
68301;BME280;55146;47.468;18.806;2022-12-29T04:30:43;100585.72;;;0.79;89.05
68301;BME280;55146;47.468;18.806;2022-12-29T04:33:08;100579.41;;;0.72;89.42
68301;BME280;55146;47.468;18.806;2022-12-29T04:35:33;100581.94;;;0.80;88.94
68301;BME280;55146;47.468;18.806;2022-12-29T04:37:59;100577.88;;;0.91;88.37
68301;BME280;55146;47.468;18.806;2022-12-29T04:40:25;100582.56;;;0.76;89.11
68301;BME280;55146;47.468;18.806;2022-12-29T04:42:50;100582.00;;;0.87;88.64
68301;BME280;55146;47.468;18.806;2022-12-29T04:45:16;100576.53;;;0.80;88.78
68301;BME280;55146;47.468;18.806;2022-12-29T04:47:41;100580.13;;;0.88;89.04
68301;BME280;55146;47.468;18.806;2022-12-29T04:50:07;100582.00;;;0.87;88.83
68301;BME280;55146;47.468;18.806;2022-12-29T04:52:32;100584.69;;;0.87;88.65
68301;BME280;55146;47.468;18.806;2022-12-29T04:54:58;100575.53;;;0.88;88.66
68301;BME280;55146;47.468;18.806;2022-12-29T04:57:23;100577.41;;;0.88;88.52
68301;BME280;55146;47.468;18.806;2022-12-29T04:59:48;100574.69;;;0.88;88.54
68301;BME280;55146;47.468;18.806;2022-12-29T05:02:15;100570.97;;;0.89;87.97
68301;BME280;55146;47.468;18.806;2022-12-29T05:04:40;100571.75;;;0.82;88.52
68301;BME280;55146;47.468;18.806;2022-12-29T05:07:05;100577.41;;;0.88;88.41
68301;BME280;55146;47.468;18.806;2022-12-29T05:09:31;100579.69;;;0.84;88.25
68301;BME280;55146;47.468;18.806;2022-12-29T05:11:56;100571.41;;;0.92;87.97
68301;BME280;55146;47.468;18.806;2022-12-29T05:14:21;100573.69;;;0.89;88.32
68301;BME280;55146;47.468;18.806;2022-12-29T05:16:47;100569.53;;;0.93;88.00
68301;BME280;55146;47.468;18.806;2022-12-29T05:19:12;100566.03;;;0.99;87.97
68301;BME280;55146;47.468;18.806;2022-12-29T05:21:38;100576.75;;;0.79;88.47
68301;BME280;55146;47.468;18.806;2022-12-29T05:24:03;100579.09;;;0.89;88.17
68301;BME280;55146;47.468;18.806;2022-12-29T05:26:29;100577.28;;;1.02;87.86
68301;BME280;55146;47.468;18.806;2022-12-29T05:28:54;100570.09;;;0.81;88.33
68301;BME280;55146;47.468;18.806;2022-12-29T05:31:19;100575.78;;;0.93;87.68
68301;BME280;55146;47.468;18.806;2022-12-29T05:33:45;100564.66;;;0.81;88.27
68301;BME280;55146;47.468;18.806;2022-12-29T05:36:10;100560.09;;;0.82;88.40
68301;BME280;55146;47.468;18.806;2022-12-29T05:38:36;100570.31;;;0.87;88.26
68301;BME280;55146;47.468;18.806;2022-12-29T05:41:01;100566.53;;;0.81;88.21
68301;BME280;55146;47.468;18.806;2022-12-29T05:43:27;100564.91;;;0.80;88.28
68301;BME280;55146;47.468;18.806;2022-12-29T05:45:52;100560.94;;;0.82;88.42
68301;BME280;55146;47.468;18.806;2022-12-29T05:48:18;100558.69;;;0.86;88.17
68301;BME280;55146;47.468;18.806;2022-12-29T05:50:48;100549.47;;;0.80;88.10
68301;BME280;55146;47.468;18.806;2022-12-29T05:53:13;100546.47;;;0.69;88.69
68301;BME280;55146;47.468;18.806;2022-12-29T05:55:39;100543.66;;;0.84;87.91
68301;BME280;55146;47.468;18.806;2022-12-29T05:58:04;100537.47;;;0.62;88.93
68301;BME280;55146;47.468;18.806;2022-12-29T06:00:29;100540.03;;;0.70;88.72
68301;BME280;55146;47.468;18.806;2022-12-29T06:02:55;100542.13;;;0.68;88.87
68301;BME280;55146;47.468;18.806;2022-12-29T06:05:20;100542.75;;;0.70;88.66
68301;BME280;55146;47.468;18.806;2022-12-29T06:07:46;100556.22;;;0.63;89.09
68301;BME280;55146;47.468;18.806;2022-12-29T06:10:11;100551.31;;;0.73;88.79
68301;BME280;55146;47.468;18.806;2022-12-29T06:12:37;100553.38;;;0.71;88.74
68301;BME280;55146;47.468;18.806;2022-12-29T06:15:03;100547.09;;;0.64;89.42
68301;BME280;55146;47.468;18.806;2022-12-29T06:17:28;100548.34;;;0.68;89.25
68301;BME280;55146;47.468;18.806;2022-12-29T06:19:54;100548.56;;;0.67;89.02
68301;BME280;55146;47.468;18.806;2022-12-29T06:22:19;100543.59;;;0.70;88.98
68301;BME280;55146;47.468;18.806;2022-12-29T06:24:44;100553.06;;;0.94;88.23
68301;BME280;55146;47.468;18.806;2022-12-29T06:27:10;100546.22;;;0.92;87.93
68301;BME280;55146;47.468;18.806;2022-12-29T06:29:35;100553.50;;;0.91;87.82
68301;BME280;55146;47.468;18.806;2022-12-29T06:32:03;100555.78;;;0.94;87.74
68301;BME280;55146;47.468;18.806;2022-12-29T06:34:28;100558.50;;;0.94;87.47
68301;BME280;55146;47.468;18.806;2022-12-29T06:36:54;100559.50;;;0.87;88.32
68301;BME280;55146;47.468;18.806;2022-12-29T06:39:19;100558.72;;;0.99;87.49
68301;BME280;55146;47.468;18.806;2022-12-29T06:41:45;100553.06;;;0.94;87.93
68301;BME280;55146;47.468;18.806;2022-12-29T06:44:10;100558.06;;;0.91;88.27
68301;BME280;55146;47.468;18.806;2022-12-29T06:46:36;100565.16;;;0.92;88.23
68301;BME280;55146;47.468;18.806;2022-12-29T06:49:01;100574.94;;;0.93;88.98
68301;BME280;55146;47.468;18.806;2022-12-29T06:51:27;100572.22;;;0.93;88.82
68301;BME280;55146;47.468;18.806;2022-12-29T06:53:52;100581.16;;;0.87;88.91
68301;BME280;55146;47.468;18.806;2022-12-29T06:56:18;100580.16;;;0.94;88.14
68301;BME280;55146;47.468;18.806;2022-12-29T06:58:43;100582.91;;;1.01;87.68
68301;BME280;55146;47.468;18.806;2022-12-29T07:01:08;100582.72;;;1.02;87.70
68301;BME280;55146;47.468;18.806;2022-12-29T07:03:34;100577.62;;;0.86;88.50
68301;BME280;55146;47.468;18.806;2022-12-29T07:05:59;100582.72;;;1.02;87.78
68301;BME280;55146;47.468;18.806;2022-12-29T07:08:24;100586.50;;;1.08;87.68
68301;BME280;55146;47.468;18.806;2022-12-29T07:10:50;100588.12;;;1.02;87.75
68301;BME280;55146;47.468;18.806;2022-12-29T07:13:15;100592.41;;;1.25;86.98
68301;BME280;55146;47.468;18.806;2022-12-29T07:15:40;100586.09;;;1.11;87.59
68301;BME280;55146;47.468;18.806;2022-12-29T07:18:06;100586.37;;;1.23;87.66
68301;BME280;55146;47.468;18.806;2022-12-29T07:20:32;100578.28;;;1.29;87.23
68301;BME280;55146;47.468;18.806;2022-12-29T07:22:57;100588.88;;;1.31;87.55
68301;BME280;55146;47.468;18.806;2022-12-29T07:25:23;100585.16;;;1.38;87.47
68301;BME280;55146;47.468;18.806;2022-12-29T07:27:48;100577.91;;;1.45;86.77
68301;BME280;55146;47.468;18.806;2022-12-29T07:30:14;100577.09;;;1.51;86.22
68301;BME280;55146;47.468;18.806;2022-12-29T07:32:40;100578.72;;;1.39;86.37
68301;BME280;55146;47.468;18.806;2022-12-29T07:35:06;100584.44;;;1.71;85.26
68301;BME280;55146;47.468;18.806;2022-12-29T07:37:32;100579.22;;;1.76;85.22
68301;BME280;55146;47.468;18.806;2022-12-29T07:39:57;100586.72;;;1.74;85.42
68301;BME280;55146;47.468;18.806;2022-12-29T07:42:22;100574.06;;;1.94;85.21
68301;BME280;55146;47.468;18.806;2022-12-29T07:44:48;100572.59;;;1.98;83.76
68301;BME280;55146;47.468;18.806;2022-12-29T07:47:13;100574.72;;;2.16;83.89
68301;BME280;55146;47.468;18.806;2022-12-29T07:49:39;100583.69;;;2.10;83.77
68301;BME280;55146;47.468;18.806;2022-12-29T07:52:04;100585.56;;;2.16;83.01
68301;BME280;55146;47.468;18.806;2022-12-29T07:54:29;100586.63;;;2.28;83.11
68301;BME280;55146;47.468;18.806;2022-12-29T07:56:55;100582.03;;;2.28;82.42
68301;BME280;55146;47.468;18.806;2022-12-29T07:59:20;100587.84;;;2.19;82.65
68301;BME280;55146;47.468;18.806;2022-12-29T08:01:46;100595.16;;;2.31;83.35
68301;BME280;55146;47.468;18.806;2022-12-29T08:04:12;100588.06;;;2.43;82.09
68301;BME280;55146;47.468;18.806;2022-12-29T08:06:37;100591.41;;;2.39;82.15
68301;BME280;55146;47.468;18.806;2022-12-29T08:09:03;100586.81;;;2.39;82.01
68301;BME280;55146;47.468;18.806;2022-12-29T08:11:28;100586.81;;;2.46;82.14
68301;BME280;55146;47.468;18.806;2022-12-29T08:13:54;100582.44;;;2.38;82.17
68301;BME280;55146;47.468;18.806;2022-12-29T08:16:19;100582.84;;;2.49;81.69
68301;BME280;55146;47.468;18.806;2022-12-29T08:18:44;100582.84;;;2.35;82.02
68301;BME280;55146;47.468;18.806;2022-12-29T08:21:10;100574.91;;;2.08;83.41
68301;BME280;55146;47.468;18.806;2022-12-29T08:23:36;100579.09;;;2.23;82.81
68301;BME280;55146;47.468;18.806;2022-12-29T08:26:05;100571.38;;;2.27;82.90
68301;BME280;55146;47.468;18.806;2022-12-29T08:28:32;100571.16;;;2.22;82.95
68301;BME280;55146;47.468;18.806;2022-12-29T08:30:59;100569.06;;;2.43;82.44
68301;BME280;55146;47.468;18.806;2022-12-29T08:33:25;100560.72;;;2.52;82.42
68301;BME280;55146;47.468;18.806;2022-12-29T08:35:50;100565.28;;;2.71;82.18
68301;BME280;55146;47.468;18.806;2022-12-29T08:38:16;100569.63;;;2.78;81.54
68301;BME280;55146;47.468;18.806;2022-12-29T08:40:42;100565.91;;;2.66;81.15
68301;BME280;55146;47.468;18.806;2022-12-29T08:43:07;100560.84;;;2.96;80.97
68301;BME280;55146;47.468;18.806;2022-12-29T08:45:33;100569.03;;;2.76;81.17
68301;BME280;55146;47.468;18.806;2022-12-29T08:47:58;100568.84;;;2.71;81.81
68301;BME280;55146;47.468;18.806;2022-12-29T08:50:23;100567.69;;;3.05;80.53
68301;BME280;55146;47.468;18.806;2022-12-29T08:52:49;100562.09;;;2.87;81.20
68301;BME280;55146;47.468;18.806;2022-12-29T08:55:14;100564.84;;;2.74;81.27
68301;BME280;55146;47.468;18.806;2022-12-29T08:57:40;100568.59;;;2.86;81.42
68301;BME280;55146;47.468;18.806;2022-12-29T09:00:06;100571.50;;;2.91;82.09
68301;BME280;55146;47.468;18.806;2022-12-29T09:02:31;100566.47;;;3.01;81.93
68301;BME280;55146;47.468;18.806;2022-12-29T09:04:57;100555.94;;;3.24;81.03
68301;BME280;55146;47.468;18.806;2022-12-29T09:07:23;100559.44;;;3.32;80.14
68301;BME280;55146;47.468;18.806;2022-12-29T09:09:48;100549.13;;;3.47;80.35
68301;BME280;55146;47.468;18.806;2022-12-29T09:12:15;100547.25;;;3.79;79.16
68301;BME280;55146;47.468;18.806;2022-12-29T09:14:41;100548.97;;;3.73;78.76
68301;BME280;55146;47.468;18.806;2022-12-29T09:17:08;100538.00;;;3.86;78.28
68301;BME280;55146;47.468;18.806;2022-12-29T09:19:52;100536.41;;;4.03;78.14
68301;BME280;55146;47.468;18.806;2022-12-29T09:22:17;100532.75;;;4.41;78.34
68301;BME280;55146;47.468;18.806;2022-12-29T09:24:42;100524.91;;;4.51;76.14
68301;BME280;55146;47.468;18.806;2022-12-29T09:27:08;100532.16;;;4.57;75.24
68301;BME280;55146;47.468;18.806;2022-12-29T09:29:33;100523.53;;;4.42;75.70
68301;BME280;55146;47.468;18.806;2022-12-29T09:31:58;100507.63;;;4.14;76.79
68301;BME280;55146;47.468;18.806;2022-12-29T09:34:24;100507.63;;;4.39;76.45
68301;BME280;55146;47.468;18.806;2022-12-29T09:36:50;100502.31;;;4.01;77.56
68301;BME280;55146;47.468;18.806;2022-12-29T09:39:15;100494.44;;;3.93;78.54
68301;BME280;55146;47.468;18.806;2022-12-29T09:41:43;100500.38;;;4.08;78.59
68301;BME280;55146;47.468;18.806;2022-12-29T09:44:26;100496.69;;;4.21;78.09
68301;BME280;55146;47.468;18.806;2022-12-29T09:46:56;100507.87;;;4.37;75.91
68301;BME280;55146;47.468;18.806;2022-12-29T09:51:53;100522.31;;;4.81;75.59
68301;BME280;55146;47.468;18.806;2022-12-29T09:54:43;100512.00;;;5.01;74.54
68301;BME280;55146;47.468;18.806;2022-12-29T09:57:27;100517.78;;;4.93;75.11
68301;BME280;55146;47.468;18.806;2022-12-29T09:59:58;100511.91;;;5.08;73.74
68301;BME280;55146;47.468;18.806;2022-12-29T10:05:00;100499.41;;;5.37;72.92
68301;BME280;55146;47.468;18.806;2022-12-29T10:07:54;100500.06;;;5.62;72.61
68301;BME280;55146;47.468;18.806;2022-12-29T10:10:55;100493.97;;;5.78;72.89
68301;BME280;55146;47.468;18.806;2022-12-29T10:14:14;100497.72;;;5.95;71.98
68301;BME280;55146;47.468;18.806;2022-12-29T10:24:48;100487.69;;;5.48;71.86
68301;BME280;55146;47.468;18.806;2022-12-29T10:27:16;100474.69;;;5.91;71.56
68301;BME280;55146;47.468;18.806;2022-12-29T10:29:52;100471.25;;;6.19;69.75
68301;BME280;55146;47.468;18.806;2022-12-29T10:32:25;100468.91;;;6.34;70.62
68301;BME280;55146;47.468;18.806;2022-12-29T10:34:56;100474.59;;;6.09;69.95
68301;BME280;55146;47.468;18.806;2022-12-29T10:37:40;100474.59;;;6.33;70.17
68301;BME280;55146;47.468;18.806;2022-12-29T10:40:25;100471.03;;;6.21;69.04
68301;BME280;55146;47.468;18.806;2022-12-29T10:42:56;100465.56;;;6.21;69.30
68301;BME280;55146;47.468;18.806;2022-12-29T10:45:26;100460.94;;;6.33;69.02
68301;BME280;55146;47.468;18.806;2022-12-29T10:48:22;100455.00;;;6.24;68.94
68301;BME280;55146;47.468;18.806;2022-12-29T10:50:50;100454.28;;;6.40;69.63
68301;BME280;55146;47.468;18.806;2022-12-29T10:53:24;100462.94;;;6.72;68.53
68301;BME280;55146;47.468;18.806;2022-12-29T10:55:51;100464.94;;;7.17;68.37
68301;BME280;55146;47.468;18.806;2022-12-29T10:58:16;100458.16;;;7.48;67.39
68301;BME280;55146;47.468;18.806;2022-12-29T11:00:43;100471.09;;;7.81;66.57
68301;BME280;55146;47.468;18.806;2022-12-29T11:05:59;100452.19;;;7.22;65.24
68301;BME280;55146;47.468;18.806;2022-12-29T11:08:32;100445.28;;;7.03;65.03
68301;BME280;55146;47.468;18.806;2022-12-29T11:11:07;100455.44;;;6.68;66.84
68301;BME280;55146;47.468;18.806;2022-12-29T11:13:35;100449.63;;;6.76;66.89
68301;BME280;55146;47.468;18.806;2022-12-29T11:16:11;100446.53;;;6.61;67.93
68301;BME280;55146;47.468;18.806;2022-12-29T11:18:40;100449.31;;;7.29;66.92
68301;BME280;55146;47.468;18.806;2022-12-29T11:23:57;100439.66;;;7.38;65.72
68301;BME280;55146;47.468;18.806;2022-12-29T11:26:24;100428.03;;;7.76;64.92
68301;BME280;55146;47.468;18.806;2022-12-29T11:31:48;100425.53;;;7.29;65.06
68301;BME280;55146;47.468;18.806;2022-12-29T11:34:34;100413.47;;;7.14;66.72
68301;BME280;55146;47.468;18.806;2022-12-29T11:37:03;100411.16;;;6.54;67.81
68301;BME280;55146;47.468;18.806;2022-12-29T11:42:13;100419.78;;;6.74;67.59
68301;BME280;55146;47.468;18.806;2022-12-29T11:44:43;100422.09;;;7.34;66.05
68301;BME280;55146;47.468;18.806;2022-12-29T11:47:20;100419.53;;;7.61;65.60
68301;BME280;55146;47.468;18.806;2022-12-29T11:49:56;100421.38;;;7.72;66.34
68301;BME280;55146;47.468;18.806;2022-12-29T11:52:27;100427.59;;;7.67;64.36
68301;BME280;55146;47.468;18.806;2022-12-29T11:54:55;100419.22;;;7.91;64.34
68301;BME280;55146;47.468;18.806;2022-12-29T11:57:22;100420.72;;;7.82;63.69
68301;BME280;55146;47.468;18.806;2022-12-29T11:59:52;100417.91;;;7.31;65.30
68301;BME280;55146;47.468;18.806;2022-12-29T12:04:47;100421.09;;;7.12;65.58
68301;BME280;55146;47.468;18.806;2022-12-29T12:07:20;100417.81;;;6.98;65.97
68301;BME280;55146;47.468;18.806;2022-12-29T12:09:58;100410.88;;;6.67;67.15
68301;BME280;55146;47.468;18.806;2022-12-29T12:12:39;100412.75;;;6.90;67.28
68301;BME280;55146;47.468;18.806;2022-12-29T12:15:13;100402.19;;;7.39;65.98
68301;BME280;55146;47.468;18.806;2022-12-29T12:17:54;100398.59;;;7.21;66.01
68301;BME280;55146;47.468;18.806;2022-12-29T12:20:41;100389.28;;;6.66;66.88
68301;BME280;55146;47.468;18.806;2022-12-29T12:26:16;100384.94;;;7.10;66.21
68301;BME280;55146;47.468;18.806;2022-12-29T12:28:57;100387.38;;;7.23;65.83
68301;BME280;55146;47.468;18.806;2022-12-29T12:31:51;100380.63;;;6.45;67.63
68301;BME280;55146;47.468;18.806;2022-12-29T12:34:27;100377.31;;;6.32;68.70
68301;BME280;55146;47.468;18.806;2022-12-29T12:39:49;100366.72;;;6.47;68.06
68301;BME280;55146;47.468;18.806;2022-12-29T12:45:32;100367.84;;;6.23;69.38
68301;BME280;55146;47.468;18.806;2022-12-29T13:02:34;100383.03;;;6.19;70.25
68301;BME280;55146;47.468;18.806;2022-12-29T13:07:31;100381.84;;;6.26;69.75
68301;BME280;55146;47.468;18.806;2022-12-29T13:13:12;100367.91;;;5.69;71.77
68301;BME280;55146;47.468;18.806;2022-12-29T13:15:55;100376.94;;;5.70;72.20
68301;BME280;55146;47.468;18.806;2022-12-29T13:21:02;100381.94;;;5.73;72.63
68301;BME280;55146;47.468;18.806;2022-12-29T13:23:41;100385.34;;;5.80;72.68
68301;BME280;55146;47.468;18.806;2022-12-29T13:26:34;100389.06;;;5.86;72.52
68301;BME280;55146;47.468;18.806;2022-12-29T13:34:31;100391.84;;;5.44;73.44
68301;BME280;55146;47.468;18.806;2022-12-29T13:37:20;100396.72;;;5.42;73.85
68301;BME280;55146;47.468;18.806;2022-12-29T13:39:57;100386.50;;;5.08;74.93
68301;BME280;55146;47.468;18.806;2022-12-29T13:42:24;100393.28;;;5.05;75.27
68301;BME280;55146;47.468;18.806;2022-12-29T13:45:13;100393.28;;;5.05;75.41
68301;BME280;55146;47.468;18.806;2022-12-29T13:50:35;100395.28;;;5.10;75.96
68301;BME280;55146;47.468;18.806;2022-12-29T13:53:17;100395.56;;;5.20;75.34
68301;BME280;55146;47.468;18.806;2022-12-29T13:58:31;100401.16;;;4.95;76.34
68301;BME280;55146;47.468;18.806;2022-12-29T14:03:48;100392.97;;;4.95;76.87
68301;BME280;55146;47.468;18.806;2022-12-29T14:06:35;100395.75;;;5.07;76.22
68301;BME280;55146;47.468;18.806;2022-12-29T14:09:26;100397.28;;;5.03;76.31
68301;BME280;55146;47.468;18.806;2022-12-29T14:11:52;100395.69;;;4.95;76.78
68301;BME280;55146;47.468;18.806;2022-12-29T14:14:25;100395.25;;;4.98;76.38
68301;BME280;55146;47.468;18.806;2022-12-29T14:16:52;100390.63;;;4.99;76.55
68301;BME280;55146;47.468;18.806;2022-12-29T14:19:30;100387.78;;;4.94;76.50
68301;BME280;55146;47.468;18.806;2022-12-29T14:22:03;100389.69;;;4.75;nan
68301;BME280;55146;47.468;18.806;2022-12-29T14:34:53;100404.22;;;4.51;78.95
68301;BME280;55146;47.468;18.806;2022-12-29T14:37:35;100411.13;;;4.53;78.90
68301;BME280;55146;47.468;18.806;2022-12-29T14:40:04;100403.91;;;4.59;78.50
68301;BME280;55146;47.468;18.806;2022-12-29T14:42:31;100404.06;;;4.45;78.76
68301;BME280;55146;47.468;18.806;2022-12-29T14:45:20;100407.69;;;4.39;79.08
68301;BME280;55146;47.468;18.806;2022-12-29T14:47:50;100409.84;;;4.37;79.35
68301;BME280;55146;47.468;18.806;2022-12-29T14:50:38;100412.56;;;4.37;79.46
68301;BME280;55146;47.468;18.806;2022-12-29T14:53:06;100416.34;;;4.36;79.49
68301;BME280;55146;47.468;18.806;2022-12-29T14:55:44;100408.66;;;4.27;79.44
68301;BME280;55146;47.468;18.806;2022-12-29T14:58:27;100410.94;;;4.12;80.17
68301;BME280;55146;47.468;18.806;2022-12-29T15:00:54;100407.75;;;4.15;80.21
68301;BME280;55146;47.468;18.806;2022-12-29T15:03:24;100406.81;;;4.02;80.50
68301;BME280;55146;47.468;18.806;2022-12-29T15:05:55;100402.94;;;4.17;79.99
68301;BME280;55146;47.468;18.806;2022-12-29T15:08:29;100411.38;;;4.08;80.51